createdAt,value
2022-11-25T00:00:39.225Z,15.2
2022-11-25T00:02:43.415Z,14.1
2022-11-25T00:04:38.835Z,15.3
2022-11-25T00:06:38.741Z,18
2022-11-25T00:08:38.756Z,16.5
2022-11-25T00:10:38.286Z,13.4
2022-11-25T00:12:38.498Z,13.5
2022-11-25T00:14:38.076Z,14
2022-11-25T00:16:38.256Z,14.7
2022-11-25T00:18:38.315Z,12.6
2022-11-25T00:20:37.351Z,13.3
2022-11-25T00:22:37.740Z,13.7
2022-11-25T00:24:37.227Z,12.6
2022-11-25T00:26:37.651Z,14.3
2022-11-25T00:28:37.057Z,12.7
2022-11-25T00:30:36.572Z,11.8
2022-11-25T00:32:36.166Z,13.4
2022-11-25T00:34:36.284Z,13.8
2022-11-25T00:36:37.200Z,11.9
2022-11-25T00:38:35.557Z,14.2
2022-11-25T00:40:35.436Z,14.6
2022-11-25T00:42:35.211Z,14.1
2022-11-25T00:44:35.606Z,11.9
2022-11-25T00:46:34.802Z,14.2
2022-11-25T00:48:35.257Z,12.4
2022-11-25T00:50:34.434Z,11.4
2022-11-25T00:52:34.268Z,13.1
2022-11-25T00:54:34.571Z,12
2022-11-25T00:56:33.856Z,13.3
2022-11-25T00:58:33.689Z,11.1
2022-11-25T01:00:34.611Z,15
2022-11-25T01:02:33.338Z,11.4
2022-11-25T01:04:33.810Z,12.6
2022-11-25T01:06:33.811Z,10.6
2022-11-25T01:08:34.647Z,12.4
2022-11-25T01:10:33.192Z,12.3
2022-11-25T01:12:32.327Z,13.9
2022-11-25T01:14:32.976Z,13
2022-11-25T01:16:32.367Z,15
2022-11-25T01:18:32.886Z,15.5
2022-11-25T01:20:33.126Z,11.4
2022-11-25T01:22:31.396Z,12.4
2022-11-25T01:24:31.417Z,12.4
2022-11-25T01:26:35.223Z,13.3
2022-11-25T01:28:31.018Z,11.8
2022-11-25T01:30:31.088Z,10.4
2022-11-25T01:32:30.470Z,15.3
2022-11-25T01:34:30.885Z,12.3
2022-11-25T01:36:30.264Z,12.2
2022-11-25T01:38:30.721Z,11.7
2022-11-25T01:40:29.739Z,11.6
2022-11-25T01:42:30.594Z,15
2022-11-25T01:44:31.746Z,14.6
2022-11-25T01:46:35.773Z,13.6
2022-11-25T01:48:40.816Z,15.6
2022-11-25T01:50:31.654Z,12.7
2022-11-25T01:52:32.238Z,14.2
2022-11-25T01:54:36.577Z,12.5
2022-11-25T01:56:32.677Z,14.9
2022-11-25T01:58:31.736Z,13.1
2022-11-25T02:00:27.715Z,15.2
2022-11-25T02:02:28.440Z,12.6
2022-11-25T02:04:33.773Z,12.1
2022-11-25T02:06:32.258Z,14.1
2022-11-25T02:08:28.452Z,16.4
2022-11-25T02:10:30.951Z,11.9
2022-11-25T02:12:31.350Z,13.4
2022-11-25T02:14:26.707Z,15.1
2022-11-25T02:16:26.760Z,14.8
2022-11-25T02:18:26.702Z,13.3
2022-11-25T02:20:26.113Z,15.4
2022-11-25T02:22:34.725Z,17
2022-11-25T02:24:34.890Z,14.5
2022-11-25T02:26:25.652Z,12.6
2022-11-25T02:28:28.219Z,14.2
2022-11-25T02:30:25.536Z,13.4
2022-11-25T02:32:25.028Z,10.8
2022-11-25T02:34:24.528Z,11.6
2022-11-25T02:36:24.351Z,11.9
2022-11-25T02:38:36.822Z,12.8
2022-11-25T02:40:25.119Z,15.5
2022-11-25T02:42:26.326Z,17.2
2022-11-25T02:44:23.658Z,13.1
2022-11-25T02:46:25.218Z,15.4
2022-11-25T02:48:45.717Z,11.5
2022-11-25T02:50:23.117Z,13.4
2022-11-25T02:52:22.696Z,12.6
2022-11-25T02:54:22.790Z,15.5
2022-11-25T02:56:26.365Z,17.3
2022-11-25T02:58:22.356Z,11.5
2022-11-25T03:00:22.179Z,12.1
2022-11-25T03:02:21.996Z,12.9
2022-11-25T03:04:21.562Z,14
2022-11-25T03:06:21.580Z,14.6
2022-11-25T03:08:21.596Z,15.8
2022-11-25T03:10:21.063Z,17.9
2022-11-25T03:12:20.848Z,13.5
2022-11-25T03:14:20.729Z,13.9
2022-11-25T03:16:20.427Z,15
2022-11-25T03:18:21.393Z,14.6
2022-11-25T03:20:20.825Z,15.3
2022-11-25T03:22:19.792Z,13.9
2022-11-25T03:24:21.423Z,16.2
2022-11-25T03:26:19.724Z,14.6
2022-11-25T03:28:19.227Z,15.7
2022-11-25T03:30:21.423Z,17.5
2022-11-25T03:32:19.166Z,17.4
2022-11-25T03:34:18.554Z,18.7
2022-11-25T03:36:18.421Z,22
2022-11-25T03:38:18.255Z,23.7
2022-11-25T03:40:18.418Z,16.5
2022-11-25T03:42:18.212Z,19.6
2022-11-25T03:44:17.634Z,19.8
2022-11-25T03:46:17.644Z,22.9
2022-11-25T03:48:17.525Z,19.4
2022-11-25T03:50:18.556Z,19
2022-11-25T03:52:17.211Z,21.4
2022-11-25T03:54:31.436Z,19
2022-11-25T03:56:16.428Z,20.4
2022-11-25T03:58:16.474Z,17.1
2022-11-25T04:00:23.631Z,12.2
2022-11-25T04:02:15.859Z,13.6
2022-11-25T04:04:15.526Z,13.6
2022-11-25T04:06:15.612Z,13.3
2022-11-25T04:08:15.307Z,13.2
2022-11-25T04:10:16.045Z,13.1
2022-11-25T04:12:22.716Z,14.3
2022-11-25T04:14:14.703Z,10.8
2022-11-25T04:16:25.124Z,10.6
2022-11-25T04:18:14.812Z,13.1
2022-11-25T04:20:16.240Z,10.8
2022-11-25T04:22:15.211Z,12.2
2022-11-25T04:24:13.584Z,11.4
2022-11-25T04:26:13.964Z,12.8
2022-11-25T04:28:14.821Z,12.6
2022-11-25T04:30:14.372Z,12.7
2022-11-25T04:32:12.767Z,13.6
2022-11-25T04:34:12.863Z,12
2022-11-25T04:36:12.346Z,13.5
2022-11-25T04:38:12.336Z,11.9
2022-11-25T04:40:12.807Z,12.9
2022-11-25T04:42:11.988Z,12
2022-11-25T04:44:12.115Z,10.2
2022-11-25T04:46:19.137Z,13.5
2022-11-25T04:48:11.218Z,13
2022-11-25T04:50:22.746Z,12.9
2022-11-25T04:52:10.882Z,14.7
2022-11-25T04:54:16.107Z,12.9
2022-11-25T04:56:17.144Z,10.9
2022-11-25T04:58:13.110Z,14.2
2022-11-25T05:00:11.555Z,13.9
2022-11-25T05:02:15.383Z,12.6
2022-11-25T05:04:09.933Z,12.3
2022-11-25T05:06:11.325Z,13.7
2022-11-25T05:08:09.638Z,14.1
2022-11-25T05:10:13.056Z,18.7
2022-11-25T05:12:14.594Z,16
2022-11-25T05:14:08.963Z,15.6
2022-11-25T05:16:09.273Z,21
2022-11-25T05:18:15.472Z,13.3
2022-11-25T05:20:11.064Z,18
2022-11-25T05:22:10.540Z,14.2
2022-11-25T05:24:09.186Z,14.1
2022-11-25T05:26:13.157Z,14.3
2022-11-25T05:28:07.521Z,16.4
2022-11-25T05:30:08.947Z,15.7
2022-11-25T05:32:07.534Z,14.2
2022-11-25T05:34:07.545Z,15.1
2022-11-25T05:36:15.628Z,14.3
2022-11-25T05:38:07.075Z,12.8
2022-11-25T05:40:07.555Z,21.6
2022-11-25T05:42:07.203Z,12.2
2022-11-25T05:44:07.118Z,15
2022-11-25T05:46:06.927Z,11.6
2022-11-25T05:48:06.684Z,12.4
2022-11-25T05:50:06.941Z,14.3
2022-11-25T05:52:08.609Z,19.7
2022-11-25T05:54:06.437Z,16.9
2022-11-25T05:56:28.474Z,14.3
2022-11-25T05:58:04.817Z,11.9
2022-11-25T06:00:26.259Z,12.8
2022-11-25T06:02:05.217Z,12.9
2022-11-25T06:04:04.746Z,13.1
2022-11-25T06:06:05.357Z,15.8
2022-11-25T06:08:04.546Z,11.4
2022-11-25T06:10:05.122Z,16.9
2022-11-25T06:12:04.155Z,13.4
2022-11-25T06:14:03.003Z,14.3
2022-11-25T06:16:08.094Z,13.9
2022-11-25T06:18:03.265Z,13.4
2022-11-25T06:20:03.805Z,13.9
2022-11-25T06:22:02.354Z,11.9
2022-11-25T06:24:02.172Z,14.3
2022-11-25T06:26:05.767Z,15
2022-11-25T06:28:12.679Z,13.5
2022-11-25T06:30:01.211Z,12.1
2022-11-25T06:32:09.398Z,12.5
2022-11-25T06:34:00.866Z,11.9
2022-11-25T06:36:02.723Z,12.1
2022-11-25T06:38:00.385Z,12.6
2022-11-25T06:40:00.590Z,13.5
2022-11-25T06:42:00.086Z,10.4
2022-11-25T06:44:00.485Z,13
2022-11-25T06:46:05.145Z,14.2
2022-11-25T06:47:59.406Z,15.4
2022-11-25T06:49:59.213Z,15.5
2022-11-25T06:51:59.126Z,12
2022-11-25T06:53:58.811Z,13.7
2022-11-25T06:56:04.942Z,14.5
2022-11-25T06:58:13.877Z,12.2
2022-11-25T06:59:58.240Z,12.8
2022-11-25T07:01:58.037Z,12
2022-11-25T07:04:00.959Z,13.4
2022-11-25T07:05:57.855Z,11.7
2022-11-25T07:07:57.677Z,12.4
2022-11-25T07:09:57.230Z,13.3
2022-11-25T07:11:56.984Z,12.6
2022-11-25T07:13:58.746Z,12.8
2022-11-25T07:16:00.244Z,10.3
2022-11-25T07:17:56.328Z,12.8
2022-11-25T07:19:56.296Z,11.7
2022-11-25T07:21:55.927Z,12.8
2022-11-25T07:23:57.657Z,13.8
2022-11-25T07:25:55.509Z,12.8
2022-11-25T07:27:55.334Z,10.9
2022-11-25T07:30:19.125Z,13.2
2022-11-25T07:31:54.885Z,14
2022-11-25T07:33:57.440Z,14.9
2022-11-25T07:35:54.760Z,12.4
2022-11-25T07:37:54.296Z,13.7
2022-11-25T07:39:54.083Z,12.2
2022-11-25T07:41:54.438Z,10.4
2022-11-25T07:43:57.257Z,10.2
2022-11-25T07:45:53.609Z,12.9
2022-11-25T07:47:53.334Z,12.6
2022-11-25T07:49:53.132Z,16.4
2022-11-25T07:51:55.454Z,13.1
2022-11-25T07:53:54.024Z,13.8
2022-11-25T07:55:52.698Z,17.4
2022-11-25T07:57:52.331Z,18.3
2022-11-25T07:59:52.155Z,18.3
2022-11-25T08:01:54.093Z,13.1
2022-11-25T08:03:52.222Z,16.3
2022-11-25T08:05:51.600Z,15.7
2022-11-25T08:07:51.459Z,15.4
2022-11-25T08:09:51.199Z,16.7
2022-11-25T08:11:52.526Z,17.2
2022-11-25T08:13:50.942Z,19.1
2022-11-25T08:15:51.030Z,14.9
2022-11-25T08:17:50.274Z,14.5
2022-11-25T08:19:50.227Z,16.5
2022-11-25T08:21:49.883Z,17.4
2022-11-25T08:23:49.716Z,13.3
2022-11-25T08:25:50.719Z,13.8
2022-11-25T08:27:49.347Z,13.1
2022-11-25T08:29:49.131Z,15.3
2022-11-25T08:31:49.303Z,14.5
2022-11-25T08:33:49.630Z,18.1
2022-11-25T08:35:53.413Z,13.4
2022-11-25T08:37:48.288Z,12.5
2022-11-25T08:39:53.702Z,15.1
2022-11-25T08:41:48.056Z,14.5
2022-11-25T08:43:48.308Z,12.9
2022-11-25T08:45:48.102Z,11
2022-11-25T08:47:47.362Z,13.8
2022-11-25T08:49:50.199Z,12
2022-11-25T08:51:47.731Z,13
2022-11-25T08:53:47.645Z,14.4
2022-11-25T08:55:46.520Z,16.5
2022-11-25T08:57:46.347Z,14.2
2022-11-25T08:59:46.174Z,15.7
2022-11-25T09:01:45.871Z,14.4
2022-11-25T09:03:48.512Z,14.6
2022-11-25T09:05:45.679Z,14.4
2022-11-25T09:07:45.710Z,16.3
2022-11-25T09:09:45.330Z,16.5
2022-11-25T09:11:45.546Z,11.7
2022-11-25T09:13:44.818Z,14.7
2022-11-25T09:15:44.580Z,13.7
2022-11-25T09:17:44.249Z,13.9
2022-11-25T09:19:44.253Z,13.4
2022-11-25T09:21:43.843Z,13.1
2022-11-25T09:23:44.098Z,16.8
2022-11-25T09:25:50.791Z,15.5
2022-11-25T09:27:43.201Z,10.9
2022-11-25T09:29:42.977Z,11.1
2022-11-25T09:31:43.081Z,13.7
2022-11-25T09:33:42.640Z,11.7
2022-11-25T09:35:42.774Z,14.3
2022-11-25T09:37:42.299Z,13.4
2022-11-25T09:39:41.992Z,12.8
2022-11-25T09:41:59.195Z,14.2
2022-11-25T09:43:50.042Z,11.1
2022-11-25T09:45:53.020Z,13.9
2022-11-25T09:47:55.673Z,12.2
2022-11-25T09:49:54.209Z,11.9
2022-11-25T09:51:51.233Z,12.2
2022-11-25T09:53:43.895Z,12.5
2022-11-25T09:55:45.087Z,11.5
2022-11-25T09:57:59.247Z,12.8
2022-11-25T09:59:47.492Z,10.3
2022-11-25T10:01:47.558Z,11.7
2022-11-25T10:03:43.678Z,9.1
2022-11-25T10:05:44.544Z,13
2022-11-25T10:07:43.298Z,12.1
2022-11-25T10:09:39.767Z,11.3
2022-11-25T10:11:49.549Z,10.3
2022-11-25T10:13:48.724Z,9.3
2022-11-25T10:15:43.451Z,16.1
2022-11-25T10:17:43.463Z,11.6
2022-11-25T10:19:50.381Z,10.6
2022-11-25T10:21:37.370Z,11.2
2022-11-25T10:23:38.860Z,12.2
2022-11-25T10:25:40.929Z,9.8
2022-11-25T10:27:43.123Z,10
2022-11-25T10:29:37.957Z,8.5
2022-11-25T10:31:36.819Z,14.3
2022-11-25T10:33:40.964Z,9.1
2022-11-25T10:35:40.481Z,9.4
2022-11-25T10:37:39.812Z,9.5
2022-11-25T10:39:35.391Z,9.6
2022-11-25T10:41:51.891Z,9
2022-11-25T10:43:37.965Z,11.7
2022-11-25T10:45:40.274Z,9.3
2022-11-25T10:47:49.551Z,10.3
2022-11-25T10:49:45.469Z,8.2
2022-11-25T10:51:41.648Z,12.5
2022-11-25T10:53:33.945Z,8.2
2022-11-25T10:55:34.687Z,7.8
2022-11-25T10:57:33.645Z,6.5
2022-11-25T10:59:35.908Z,7.7
2022-11-25T11:01:33.145Z,6.3
2022-11-25T11:03:33.758Z,7.2
2022-11-25T11:05:33.028Z,8.2
2022-11-25T11:07:35.271Z,7.4
2022-11-25T11:09:35.558Z,8.5
2022-11-25T11:11:32.175Z,7.7
2022-11-25T11:13:31.876Z,7.7
2022-11-25T11:15:43.458Z,7.6
2022-11-25T11:17:36.752Z,8.4
2022-11-25T11:19:31.482Z,7.6
2022-11-25T11:21:33.863Z,10.1
2022-11-25T11:23:45.766Z,8.7
2022-11-25T11:25:33.743Z,10.2
2022-11-25T11:27:36.177Z,9.2
2022-11-25T11:29:30.243Z,9.1
2022-11-25T11:31:34.052Z,8.8
2022-11-25T11:33:36.434Z,7.4
2022-11-25T11:35:44.026Z,8.8
2022-11-25T11:37:39.962Z,8
2022-11-25T11:39:49.788Z,8.2
2022-11-25T11:41:37.752Z,11.4
2022-11-25T11:43:42.044Z,7.3
2022-11-25T11:45:41.696Z,9.9
2022-11-25T11:47:37.379Z,8.4
2022-11-25T11:49:47.092Z,8.7
2022-11-25T11:51:35.964Z,9.4
2022-11-25T11:53:30.880Z,10.3
2022-11-25T11:55:43.233Z,11.3
2022-11-25T11:57:37.276Z,11.9
2022-11-25T11:59:42.531Z,11.5
2022-11-25T12:01:42.874Z,18
2022-11-25T12:03:28.855Z,15.4
2022-11-25T12:05:30.460Z,17.2
2022-11-25T12:07:31.894Z,13.5
2022-11-25T12:09:31.599Z,12
2022-11-25T12:11:32.146Z,9.1
2022-11-25T12:13:34.812Z,11.8
2022-11-25T12:15:37.175Z,10.3
2022-11-25T12:17:32.025Z,10.4
2022-11-25T12:19:32.757Z,11.5
2022-11-25T12:21:41.540Z,8.6
2022-11-25T12:23:37.182Z,8.9
2022-11-25T12:25:29.329Z,8.1
2022-11-25T12:27:28.928Z,9.2
2022-11-25T12:29:35.603Z,8.4
2022-11-25T12:31:27.604Z,12.1
2022-11-25T12:33:29.833Z,7.9
2022-11-25T12:35:35.455Z,8.1
2022-11-25T12:37:31.699Z,10.1
2022-11-25T12:39:28.248Z,11.1
2022-11-25T12:41:27.902Z,14.7
2022-11-25T12:43:29.418Z,11.5
2022-11-25T12:45:23.806Z,11.1
2022-11-25T12:47:21.570Z,15
2022-11-25T12:49:24.769Z,10.5
2022-11-25T12:51:40.540Z,11.6
2022-11-25T12:53:31.665Z,12.5
2022-11-25T12:55:22.008Z,11.1
2022-11-25T12:57:36.779Z,10.8
2022-11-25T12:59:44.525Z,12.4
2022-11-25T13:01:38.118Z,12.4
2022-11-25T13:03:45.713Z,12.6
2022-11-25T13:05:41.415Z,14.3
2022-11-25T13:07:29.167Z,17.7
2022-11-25T13:09:37.418Z,19
2022-11-25T13:11:41.136Z,16.9
2022-11-25T13:13:32.555Z,20.4
2022-11-25T13:15:26.077Z,18
2022-11-25T13:17:19.399Z,18.1
2022-11-25T13:19:19.348Z,21.1
2022-11-25T13:21:18.981Z,19.7
2022-11-25T13:23:24.846Z,19
2022-11-25T13:25:24.337Z,18.6
2022-11-25T13:27:30.521Z,18.2
2022-11-25T13:29:46.442Z,18
2022-11-25T13:31:21.191Z,14.7
2022-11-25T13:33:46.277Z,13.7
2022-11-25T13:35:34.467Z,18.2
2022-11-25T13:37:36.640Z,19.3
2022-11-25T13:39:17.801Z,19.1
2022-11-25T13:41:35.647Z,16.9
2022-11-25T13:43:21.065Z,20.6
2022-11-25T13:45:26.866Z,20.5
2022-11-25T13:47:31.639Z,20.2
2022-11-25T13:49:26.977Z,24
2022-11-25T13:51:18.108Z,22.3
2022-11-25T13:53:28.219Z,20
2022-11-25T13:55:30.440Z,23.8
2022-11-25T13:57:23.181Z,21.9
2022-11-25T13:59:35.451Z,23.8
2022-11-25T14:01:29.235Z,22.3
2022-11-25T14:03:42.846Z,24.5
2022-11-25T14:05:41.182Z,24
2022-11-25T14:07:25.496Z,17.5
2022-11-25T14:09:27.642Z,22.5
2022-11-25T14:11:38.597Z,21.4
2022-11-25T14:13:37.458Z,22.8
2022-11-25T14:15:27.919Z,23.8
2022-11-25T14:17:29.344Z,26.2
2022-11-25T14:21:20.817Z,23.4
2022-11-25T14:23:31.193Z,23.3
2022-11-25T14:25:19.518Z,21.2
2022-11-25T14:27:15.694Z,22.5
2022-11-25T14:29:16.776Z,19.4
2022-11-25T14:31:15.159Z,20.1
2022-11-25T14:33:15.831Z,21.1
2022-11-25T14:35:16.218Z,21.2
2022-11-25T14:37:14.007Z,23.1
2022-11-25T14:39:17.110Z,19.3
2022-11-25T14:41:16.965Z,19.4
2022-11-25T14:43:14.551Z,22.1
2022-11-25T14:45:21.503Z,22.4
2022-11-25T14:47:08.356Z,25.7
2022-11-25T14:49:30.649Z,19.2
2022-11-25T14:51:10.374Z,18.2
2022-11-25T14:53:09.723Z,19.4
2022-11-25T14:55:08.364Z,20.4
2022-11-25T14:57:07.618Z,20.7
2022-11-25T14:59:09.279Z,23.9
2022-11-25T15:01:16.731Z,19.7
2022-11-25T15:03:17.217Z,20.6
2022-11-25T15:05:22.148Z,21.7
2022-11-25T15:07:18.938Z,22.2
2022-11-25T15:09:19.832Z,21.5
2022-11-25T15:11:13.140Z,21.2
2022-11-25T15:13:12.413Z,20.7
2022-11-25T15:15:05.851Z,19.5
2022-11-25T15:17:07.342Z,20.6
2022-11-25T15:19:13.860Z,16.8
2022-11-25T15:21:05.541Z,20.2
2022-11-25T15:23:04.363Z,19
2022-11-25T15:25:08.496Z,18.5
2022-11-25T15:27:15.344Z,16.6
2022-11-25T15:29:11.228Z,15.2
2022-11-25T15:31:09.487Z,15.9
2022-11-25T15:33:03.448Z,17.9
2022-11-25T15:35:05.966Z,15.3
2022-11-25T15:37:02.881Z,15.8
2022-11-25T15:39:23.219Z,12.6
2022-11-25T15:41:03.558Z,19
2022-11-25T15:43:05.334Z,16.6
2022-11-25T15:45:10.428Z,18.1
2022-11-25T15:47:05.088Z,14.9
2022-11-25T15:49:05.064Z,12.3
2022-11-25T15:51:04.091Z,11.6
2022-11-25T15:53:01.276Z,13.3
2022-11-25T15:55:05.248Z,13.5
2022-11-25T15:57:14.103Z,12.4
2022-11-25T15:59:02.119Z,14.4
2022-11-25T16:01:03.151Z,13.8
2022-11-25T16:03:00.288Z,15
2022-11-25T16:05:15.957Z,14.3
2022-11-25T16:06:59.592Z,11.9
2022-11-25T16:09:01.525Z,10.8
2022-11-25T16:11:09.981Z,13.1
2022-11-25T16:13:21.430Z,10.3
2022-11-25T16:14:58.558Z,10.5
2022-11-25T16:17:01.528Z,11
2022-11-25T16:19:12.201Z,9.4
2022-11-25T16:21:02.477Z,7.8
2022-11-25T16:22:57.676Z,10.9
2022-11-25T16:25:02.335Z,8.3
2022-11-25T16:26:59.756Z,9.9
2022-11-25T16:28:59.798Z,9.4
2022-11-25T16:30:59.239Z,8.4
2022-11-25T16:32:56.753Z,10.9
2022-11-25T16:35:05.352Z,8.2
2022-11-25T16:36:56.084Z,8.7
2022-11-25T16:38:55.810Z,6.5
2022-11-25T16:40:56.202Z,7.1
2022-11-25T16:42:55.930Z,8
2022-11-25T16:44:55.235Z,9.4
2022-11-25T16:46:56.614Z,9.5
2022-11-25T16:48:54.781Z,10.6
2022-11-25T16:50:54.530Z,10.2
2022-11-25T16:52:54.271Z,11.5
2022-11-25T16:54:54.185Z,11.8
2022-11-25T16:56:54.623Z,7.9
2022-11-25T16:58:54.586Z,6.9
2022-11-25T17:00:55.664Z,8.5
2022-11-25T17:02:53.255Z,8.1
2022-11-25T17:04:53.102Z,7.5
2022-11-25T17:07:30.671Z,6.9
2022-11-25T17:08:52.671Z,8.8
2022-11-25T17:10:58.589Z,8.4
2022-11-25T17:12:52.201Z,7.7
2022-11-25T17:14:52.149Z,7.8
2022-11-25T17:16:51.871Z,9.3
2022-11-25T17:18:54.287Z,7
2022-11-25T17:20:51.336Z,8.6
2022-11-25T17:22:52.348Z,8
2022-11-25T17:24:51.143Z,9.8
2022-11-25T17:26:54.877Z,8.6
2022-11-25T17:28:54.137Z,9.4
2022-11-25T17:30:50.273Z,9.5
2022-11-25T17:32:56.458Z,10.2
2022-11-25T17:34:49.826Z,10.1
2022-11-25T17:36:49.638Z,9.2
2022-11-25T17:38:49.832Z,11.2
2022-11-25T17:40:49.256Z,10.2
2022-11-25T17:42:48.947Z,12.6
2022-11-25T17:44:52.998Z,11.6
2022-11-25T17:46:48.618Z,12.4
2022-11-25T17:48:48.302Z,13.2
2022-11-25T17:50:48.204Z,14.5
2022-11-25T17:52:48.511Z,12.4
2022-11-25T17:54:47.671Z,12.8
2022-11-25T17:56:51.983Z,11.7
2022-11-25T17:58:47.483Z,12.7
2022-11-25T18:00:47.156Z,15.9
2022-11-25T18:02:48.154Z,15.3
2022-11-25T18:04:47.665Z,13.6
2022-11-25T18:06:46.850Z,17.1
2022-11-25T18:08:46.257Z,15.4
2022-11-25T18:10:46.636Z,15.6
2022-11-25T18:12:48.997Z,13.8
2022-11-25T18:14:45.987Z,18.2
2022-11-25T18:16:45.659Z,12.9
2022-11-25T18:18:45.360Z,14.8
2022-11-25T18:20:44.997Z,12.9
2022-11-25T18:22:45.775Z,13.4
2022-11-25T18:24:45.284Z,17.9
2022-11-25T18:26:46.134Z,15.9
2022-11-25T18:28:44.278Z,12.7
2022-11-25T18:30:44.166Z,15.9
2022-11-25T18:32:44.023Z,13.8
2022-11-25T18:34:43.399Z,15.8
2022-11-25T18:36:43.862Z,13.6
2022-11-25T18:38:43.015Z,14.2
2022-11-25T18:40:48.775Z,14.1
2022-11-25T18:42:44.539Z,12
2022-11-25T18:44:42.829Z,13.8
2022-11-25T18:46:42.165Z,13
2022-11-25T18:48:42.081Z,13
2022-11-25T18:50:42.693Z,16.5
2022-11-25T18:52:41.660Z,11.4
2022-11-25T18:54:41.368Z,12.7
2022-11-25T18:56:42.464Z,12.2
2022-11-25T18:58:50.015Z,14.6
2022-11-25T19:00:41.111Z,12.3
2022-11-25T19:02:40.600Z,15.2
2022-11-25T19:04:40.404Z,16.3
2022-11-25T19:06:40.104Z,14.1
2022-11-25T19:08:39.790Z,12
2022-11-25T19:10:42.015Z,12.2
2022-11-25T19:12:39.798Z,14.6
2022-11-25T19:14:41.093Z,12.7
2022-11-25T19:16:39.363Z,13.3
2022-11-25T19:18:38.939Z,10.3
2022-11-25T19:20:38.433Z,12.3
2022-11-25T19:22:38.175Z,17.6
2022-11-25T19:24:38.285Z,11.8
2022-11-25T19:26:42.173Z,9.3
2022-11-25T19:28:37.584Z,11.9
2022-11-25T19:30:37.470Z,13.6
2022-11-25T19:32:37.316Z,14.6
2022-11-25T19:34:40.371Z,12.6
2022-11-25T19:36:36.591Z,11.3
2022-11-25T19:38:36.415Z,11.8
2022-11-25T19:40:39.291Z,12.7
2022-11-25T19:42:35.956Z,10.8
2022-11-25T19:44:36.351Z,12.1
2022-11-25T19:47:07.053Z,10.3
2022-11-25T19:48:38.628Z,13.2
2022-11-25T19:50:37.998Z,10.3
2022-11-25T19:52:37.095Z,11.9
2022-11-25T19:54:34.841Z,11.4
2022-11-25T19:56:34.252Z,12
2022-11-25T19:58:34.050Z,12.4
2022-11-25T20:00:33.990Z,12.3
2022-11-25T20:02:34.088Z,11.7
2022-11-25T20:04:33.748Z,11.2
2022-11-25T20:06:33.339Z,9.4
2022-11-25T20:08:32.928Z,9.1
2022-11-25T20:10:32.597Z,10.1
2022-11-25T20:12:32.606Z,10.1
2022-11-25T20:14:32.156Z,12.2
2022-11-25T20:16:35.611Z,10.8
2022-11-25T20:18:32.173Z,13.4
2022-11-25T20:20:34.583Z,12.5
2022-11-25T20:22:35.414Z,10.6
2022-11-25T20:24:30.982Z,10.6
2022-11-25T20:26:34.602Z,12.8
2022-11-25T20:28:31.403Z,10.4
2022-11-25T20:30:30.271Z,13.7
2022-11-25T20:32:31.765Z,12.2
2022-11-25T20:34:29.853Z,12.7
2022-11-25T20:36:31.695Z,14.1
2022-11-25T20:38:33.559Z,14.9
2022-11-25T20:40:37.036Z,14.8
2022-11-25T20:42:29.070Z,11.5
2022-11-25T20:44:28.798Z,12.5
2022-11-25T20:46:29.225Z,13
2022-11-25T20:48:29.082Z,12.3
2022-11-25T20:50:29.038Z,13.4
2022-11-25T20:52:31.402Z,13.2
2022-11-25T20:54:27.671Z,10.6
2022-11-25T20:56:28.433Z,11.6
2022-11-25T20:58:29.213Z,13.1
2022-11-25T21:00:28.295Z,14.2
2022-11-25T21:02:26.837Z,10.9
2022-11-25T21:04:26.524Z,12.1
2022-11-25T21:06:28.709Z,12.1
2022-11-25T21:08:29.669Z,13
2022-11-25T21:10:28.162Z,16.4
2022-11-25T21:12:25.652Z,15.6
2022-11-25T21:14:25.356Z,15.4
2022-11-25T21:16:25.282Z,11.2
2022-11-25T21:18:24.922Z,14.8
2022-11-25T21:20:24.936Z,12.6
2022-11-25T21:22:24.656Z,15.3
2022-11-25T21:24:31.172Z,16.8
2022-11-25T21:26:25.892Z,15.6
2022-11-25T21:28:26.700Z,13.7
2022-11-25T21:30:25.248Z,15.8
2022-11-25T21:32:25.798Z,13.3
2022-11-25T21:34:23.295Z,14.4
2022-11-25T21:36:26.884Z,15.8
2022-11-25T21:38:25.820Z,15.9
2022-11-25T21:40:32.477Z,14.4
2022-11-25T21:42:22.457Z,13.7
2022-11-25T21:44:28.014Z,12.6
2022-11-25T21:46:22.372Z,14.7
2022-11-25T21:48:24.395Z,12.8
2022-11-25T21:50:21.908Z,14.3
2022-11-25T21:52:21.243Z,18.2
2022-11-25T21:54:20.965Z,13.8
2022-11-25T21:56:25.482Z,12.2
2022-11-25T21:58:24.526Z,11.2
2022-11-25T22:00:23.555Z,14.9
2022-11-25T22:02:21.959Z,14.1
2022-11-25T22:04:20.545Z,12.7
2022-11-25T22:06:22.087Z,13.8
2022-11-25T22:08:19.451Z,14.4
2022-11-25T22:10:19.477Z,14.4
2022-11-25T22:12:27.151Z,15.3
2022-11-25T22:14:26.532Z,16.1
2022-11-25T22:16:25.804Z,15.5
2022-11-25T22:18:25.064Z,16.2
2022-11-25T22:20:24.366Z,18
2022-11-25T22:22:18.595Z,15.6
2022-11-25T22:24:18.938Z,14.2
2022-11-25T22:26:28.949Z,15
2022-11-25T22:28:19.566Z,13.8
2022-11-25T22:30:19.790Z,12.2
2022-11-25T22:32:17.983Z,15.4
2022-11-25T22:34:18.587Z,14.7
2022-11-25T22:36:29.284Z,15.9
2022-11-25T22:38:17.672Z,14.5
2022-11-25T22:40:15.926Z,13.2
2022-11-25T22:42:19.764Z,15.3
2022-11-25T22:44:19.280Z,13
2022-11-25T22:46:15.162Z,17.6
2022-11-25T22:48:17.497Z,16.4
2022-11-25T22:50:19.808Z,14.2
2022-11-25T22:52:19.700Z,15.7
2022-11-25T22:54:14.098Z,18.1
2022-11-25T22:56:17.177Z,17.2
2022-11-25T22:58:14.034Z,16.6
2022-11-25T23:00:18.104Z,16
2022-11-25T23:02:20.145Z,16.4
2022-11-25T23:04:16.743Z,16.4
2022-11-25T23:06:12.906Z,16.4
2022-11-25T23:08:15.365Z,16.4
2022-11-25T23:10:15.748Z,16.2
2022-11-25T23:12:12.490Z,16.8
2022-11-25T23:14:12.510Z,17.1
2022-11-25T23:16:11.856Z,13.8
2022-11-25T23:18:15.381Z,15.5
2022-11-25T23:20:15.963Z,13.5
2022-11-25T23:22:11.446Z,14.7
2022-11-25T23:24:12.546Z,14.1
2022-11-25T23:26:11.045Z,17.6
2022-11-25T23:28:10.330Z,14.6
2022-11-25T23:30:14.608Z,16.5
2022-11-25T23:32:17.419Z,16.1
2022-11-25T23:34:12.016Z,21.7
2022-11-25T23:36:11.610Z,17.2
2022-11-25T23:38:17.380Z,16.3
2022-11-25T23:40:16.714Z,13.9
2022-11-25T23:42:15.292Z,12.9
2022-11-25T23:44:13.983Z,14.8
2022-11-25T23:46:12.717Z,14.6
2022-11-25T23:48:09.894Z,17.9
2022-11-25T23:50:14.204Z,14.8
2022-11-25T23:52:11.153Z,15.4
2022-11-25T23:54:12.953Z,15.5
2022-11-25T23:56:07.530Z,15.1
2022-11-25T23:58:14.712Z,16.2
